sensor_id;sensor_type;location;lat;lon;timestamp;pressure;altitude;pressure_sealevel;temperature;humidity
11440;BME280;5776;51.814;4.510;2022-07-18T00:00:17;102497.25;;;19.23;66.21
11440;BME280;5776;51.814;4.510;2022-07-18T00:02:43;102509.13;;;19.24;66.43
11440;BME280;5776;51.814;4.510;2022-07-18T00:05:09;102505.34;;;19.19;66.49
11440;BME280;5776;51.814;4.510;2022-07-18T00:07:35;102494.72;;;19.13;66.70
11440;BME280;5776;51.814;4.510;2022-07-18T00:10:01;102482.19;;;19.07;66.85
11440;BME280;5776;51.814;4.510;2022-07-18T00:12:27;102484.91;;;18.93;67.33
11440;BME280;5776;51.814;4.510;2022-07-18T00:14:54;102485.91;;;18.83;66.73
11440;BME280;5776;51.814;4.510;2022-07-18T00:17:20;102476.13;;;18.91;65.90
11440;BME280;5776;51.814;4.510;2022-07-18T00:19:46;102481.06;;;18.94;65.77
11440;BME280;5776;51.814;4.510;2022-07-18T00:22:12;102482.69;;;18.95;66.12
11440;BME280;5776;51.814;4.510;2022-07-18T00:24:38;102480.84;;;18.90;66.08
11440;BME280;5776;51.814;4.510;2022-07-18T00:27:04;102476.75;;;18.88;66.68
11440;BME280;5776;51.814;4.510;2022-07-18T00:29:33;102475.84;;;18.92;66.07
11440;BME280;5776;51.814;4.510;2022-07-18T00:32:04;102470.25;;;18.97;66.02
11440;BME280;5776;51.814;4.510;2022-07-18T00:34:31;102467.59;;;18.92;66.69
11440;BME280;5776;51.814;4.510;2022-07-18T00:36:57;102465.13;;;18.91;66.33
11440;BME280;5776;51.814;4.510;2022-07-18T00:39:24;102465.13;;;18.91;66.03
11440;BME280;5776;51.814;4.510;2022-07-18T00:41:50;102460.13;;;18.93;65.87
11440;BME280;5776;51.814;4.510;2022-07-18T00:44:25;102460.94;;;18.93;65.72
11440;BME280;5776;51.814;4.510;2022-07-18T00:46:53;102458.72;;;18.95;65.80
11440;BME280;5776;51.814;4.510;2022-07-18T00:49:19;102461.47;;;18.95;65.71
11440;BME280;5776;51.814;4.510;2022-07-18T00:51:45;102461.16;;;18.97;65.34
11440;BME280;5776;51.814;4.510;2022-07-18T00:54:12;102468.63;;;18.96;65.30
11440;BME280;5776;51.814;4.510;2022-07-18T00:56:38;102463.50;;;18.90;65.57
11440;BME280;5776;51.814;4.510;2022-07-18T00:59:05;102464.13;;;18.87;65.70
11440;BME280;5776;51.814;4.510;2022-07-18T01:01:31;102460.84;;;18.85;65.26
11440;BME280;5776;51.814;4.510;2022-07-18T01:04:20;102470.03;;;18.80;65.93
11440;BME280;5776;51.814;4.510;2022-07-18T01:06:47;102469.41;;;18.83;65.40
11440;BME280;5776;51.814;4.510;2022-07-18T01:09:14;102469.72;;;18.82;65.34
11440;BME280;5776;51.814;4.510;2022-07-18T01:11:40;102466.63;;;18.69;66.18
11440;BME280;5776;51.814;4.510;2022-07-18T01:14:06;102471.91;;;18.66;66.15
11440;BME280;5776;51.814;4.510;2022-07-18T01:16:33;102465.06;;;18.63;66.05
11440;BME280;5776;51.814;4.510;2022-07-18T01:18:59;102465.25;;;18.53;66.34
11440;BME280;5776;51.814;4.510;2022-07-18T01:21:25;102454.56;;;18.51;66.29
11440;BME280;5776;51.814;4.510;2022-07-18T01:23:52;102455.59;;;18.55;66.04
11440;BME280;5776;51.814;4.510;2022-07-18T01:26:18;102457.19;;;18.43;66.54
11440;BME280;5776;51.814;4.510;2022-07-18T01:28:44;102456.66;;;18.41;66.30
11440;BME280;5776;51.814;4.510;2022-07-18T01:31:11;102447.31;;;18.42;66.66
11440;BME280;5776;51.814;4.510;2022-07-18T01:33:37;102450.06;;;18.42;66.11
11440;BME280;5776;51.814;4.510;2022-07-18T01:36:04;102447.22;;;18.47;66.34
11440;BME280;5776;51.814;4.510;2022-07-18T01:38:31;102456.00;;;18.49;66.44
11440;BME280;5776;51.814;4.510;2022-07-18T01:40:58;102455.91;;;18.54;66.35
11440;BME280;5776;51.814;4.510;2022-07-18T01:43:25;102444.28;;;18.57;65.75
11440;BME280;5776;51.814;4.510;2022-07-18T01:45:51;102435.50;;;18.55;65.87
11440;BME280;5776;51.814;4.510;2022-07-18T01:48:17;102439.41;;;18.54;66.00
11440;BME280;5776;51.814;4.510;2022-07-18T01:50:45;102434.41;;;18.56;65.74
11440;BME280;5776;51.814;4.510;2022-07-18T01:53:12;102437.75;;;18.53;65.77
11440;BME280;5776;51.814;4.510;2022-07-18T01:55:38;102439.41;;;18.54;66.12
11440;BME280;5776;51.814;4.510;2022-07-18T01:58:04;102443.06;;;18.49;66.32
11440;BME280;5776;51.814;4.510;2022-07-18T02:00:31;102434.91;;;18.44;66.75
11440;BME280;5776;51.814;4.510;2022-07-18T02:02:56;102435.28;;;18.38;66.53
11440;BME280;5776;51.814;4.510;2022-07-18T02:05:23;102432.63;;;18.32;66.88
11440;BME280;5776;51.814;4.510;2022-07-18T02:07:48;102431.19;;;18.21;66.83
11440;BME280;5776;51.814;4.510;2022-07-18T02:10:18;102438.91;;;18.19;67.49
11440;BME280;5776;51.814;4.510;2022-07-18T02:12:44;102430.34;;;18.21;66.91
11440;BME280;5776;51.814;4.510;2022-07-18T02:15:13;102428.94;;;18.23;67.30
11440;BME280;5776;51.814;4.510;2022-07-18T02:17:39;102422.84;;;18.26;67.17
11440;BME280;5776;51.814;4.510;2022-07-18T02:20:08;102413.78;;;18.26;66.61
11440;BME280;5776;51.814;4.510;2022-07-18T02:22:34;102413.56;;;18.22;66.38
11440;BME280;5776;51.814;4.510;2022-07-18T02:25:00;102408.16;;;18.17;66.92
11440;BME280;5776;51.814;4.510;2022-07-18T02:27:26;102401.22;;;18.20;66.44
11440;BME280;5776;51.814;4.510;2022-07-18T02:29:52;102390.03;;;18.16;66.70
11440;BME280;5776;51.814;4.510;2022-07-18T02:32:18;102400.50;;;18.14;66.84
11440;BME280;5776;51.814;4.510;2022-07-18T02:34:44;102394.41;;;18.17;66.60
11440;BME280;5776;51.814;4.510;2022-07-18T02:37:10;102395.53;;;18.16;66.29
11440;BME280;5776;51.814;4.510;2022-07-18T02:39:36;102395.19;;;18.18;66.62
11440;BME280;5776;51.814;4.510;2022-07-18T02:42:02;102392.25;;;18.14;66.54
11440;BME280;5776;51.814;4.510;2022-07-18T02:44:28;102390.59;;;18.13;66.82
11440;BME280;5776;51.814;4.510;2022-07-18T02:46:54;102384.09;;;18.09;66.98
11440;BME280;5776;51.814;4.510;2022-07-18T02:49:20;102385.53;;;18.06;67.11
11440;BME280;5776;51.814;4.510;2022-07-18T02:51:57;102387.53;;;18.01;67.09
11440;BME280;5776;51.814;4.510;2022-07-18T02:54:24;102378.69;;;18.04;67.08
11440;BME280;5776;51.814;4.510;2022-07-18T02:56:51;102378.16;;;18.02;66.58
11440;BME280;5776;51.814;4.510;2022-07-18T02:59:18;102375.13;;;18.03;66.86
11440;BME280;5776;51.814;4.510;2022-07-18T03:01:44;102377.56;;;18.05;65.93
11440;BME280;5776;51.814;4.510;2022-07-18T03:04:10;102380.53;;;18.08;66.07
11440;BME280;5776;51.814;4.510;2022-07-18T03:06:36;102380.31;;;18.05;66.07
11440;BME280;5776;51.814;4.510;2022-07-18T03:09:02;102390.50;;;18.04;65.77
11440;BME280;5776;51.814;4.510;2022-07-18T03:11:28;102384.19;;;18.04;66.05
11440;BME280;5776;51.814;4.510;2022-07-18T03:13:54;102378.38;;;18.05;65.73
11440;BME280;5776;51.814;4.510;2022-07-18T03:16:20;102375.13;;;18.03;66.03
11440;BME280;5776;51.814;4.510;2022-07-18T03:18:46;102376.03;;;17.99;66.44
11440;BME280;5776;51.814;4.510;2022-07-18T03:21:12;102379.44;;;17.90;65.83
11440;BME280;5776;51.814;4.510;2022-07-18T03:23:38;102375.38;;;17.88;66.27
11440;BME280;5776;51.814;4.510;2022-07-18T03:26:04;102376.41;;;17.92;66.55
11440;BME280;5776;51.814;4.510;2022-07-18T03:28:30;102372.75;;;17.97;65.61
11440;BME280;5776;51.814;4.510;2022-07-18T03:30:56;102380.47;;;17.95;66.78
11440;BME280;5776;51.814;4.510;2022-07-18T03:33:25;102379.97;;;17.92;66.36
11440;BME280;5776;51.814;4.510;2022-07-18T03:35:51;102376.19;;;17.88;67.23
11440;BME280;5776;51.814;4.510;2022-07-18T03:38:17;102370.78;;;17.83;66.59
11440;BME280;5776;51.814;4.510;2022-07-18T03:40:43;102360.38;;;17.80;66.59
11440;BME280;5776;51.814;4.510;2022-07-18T03:43:09;102357.41;;;17.77;66.75
11440;BME280;5776;51.814;4.510;2022-07-18T03:45:35;102349.16;;;17.77;67.55
11440;BME280;5776;51.814;4.510;2022-07-18T03:48:01;102355.47;;;17.77;66.72
11440;BME280;5776;51.814;4.510;2022-07-18T03:50:27;102349.91;;;17.82;66.67
11440;BME280;5776;51.814;4.510;2022-07-18T03:52:53;102352.88;;;17.86;67.04
11440;BME280;5776;51.814;4.510;2022-07-18T03:55:19;102349.31;;;17.85;66.12
11440;BME280;5776;51.814;4.510;2022-07-18T03:57:45;102351.56;;;17.83;66.58
11440;BME280;5776;51.814;4.510;2022-07-18T04:00:12;102341.66;;;17.82;66.65
11440;BME280;5776;51.814;4.510;2022-07-18T04:02:40;102347.97;;;17.83;66.87
11440;BME280;5776;51.814;4.510;2022-07-18T04:05:07;102346.88;;;17.84;66.67
11440;BME280;5776;51.814;4.510;2022-07-18T04:07:33;102350.44;;;17.84;66.69
11440;BME280;5776;51.814;4.510;2022-07-18T04:09:59;102353.47;;;17.83;67.10
11440;BME280;5776;51.814;4.510;2022-07-18T04:12:25;102339.22;;;17.81;66.86
11440;BME280;5776;51.814;4.510;2022-07-18T04:14:51;102343.66;;;17.77;67.10
11440;BME280;5776;51.814;4.510;2022-07-18T04:17:17;102338.78;;;17.74;67.69
11440;BME280;5776;51.814;4.510;2022-07-18T04:19:43;102336.69;;;17.65;67.71
11440;BME280;5776;51.814;4.510;2022-07-18T04:22:09;102336.69;;;17.65;68.00
11440;BME280;5776;51.814;4.510;2022-07-18T04:24:35;102327.53;;;17.70;67.90
11440;BME280;5776;51.814;4.510;2022-07-18T04:27:01;102344.47;;;17.77;67.04
11440;BME280;5776;51.814;4.510;2022-07-18T04:29:27;102347.22;;;17.77;67.30
11440;BME280;5776;51.814;4.510;2022-07-18T04:31:52;102349.91;;;17.82;67.77
11440;BME280;5776;51.814;4.510;2022-07-18T04:34:18;102335.13;;;17.78;68.09
11440;BME280;5776;51.814;4.510;2022-07-18T04:36:44;102331.03;;;17.76;68.37
11440;BME280;5776;51.814;4.510;2022-07-18T04:39:10;102334.88;;;17.75;68.63
11440;BME280;5776;51.814;4.510;2022-07-18T04:41:36;102338.44;;;17.75;68.07
11440;BME280;5776;51.814;4.510;2022-07-18T04:44:02;102340.38;;;17.75;67.92
11440;BME280;5776;51.814;4.510;2022-07-18T04:46:28;102337.34;;;17.76;68.38
11440;BME280;5776;51.814;4.510;2022-07-18T04:48:54;102339.66;;;17.69;69.38
11440;BME280;5776;51.814;4.510;2022-07-18T04:51:20;102343.03;;;17.66;69.67
11440;BME280;5776;51.814;4.510;2022-07-18T04:53:46;102339.06;;;17.72;68.70
11440;BME280;5776;51.814;4.510;2022-07-18T04:56:12;102333.16;;;17.98;65.65
11440;BME280;5776;51.814;4.510;2022-07-18T04:58:38;102332.38;;;18.11;65.62
11440;BME280;5776;51.814;4.510;2022-07-18T05:01:04;102334.44;;;18.19;64.90
11440;BME280;5776;51.814;4.510;2022-07-18T05:03:30;102335.47;;;18.23;64.65
11440;BME280;5776;51.814;4.510;2022-07-18T05:05:56;102335.94;;;18.25;64.29
11440;BME280;5776;51.814;4.510;2022-07-18T05:08:21;102341.97;;;18.27;64.52
11440;BME280;5776;51.814;4.510;2022-07-18T05:10:47;102340.53;;;18.30;64.14
11440;BME280;5776;51.814;4.510;2022-07-18T05:13:13;102331.47;;;18.29;64.22
11440;BME280;5776;51.814;4.510;2022-07-18T05:15:39;102343.00;;;18.31;64.31
11440;BME280;5776;51.814;4.510;2022-07-18T05:18:05;102349.31;;;18.32;63.73
11440;BME280;5776;51.814;4.510;2022-07-18T05:20:31;102345.41;;;18.33;63.66
11440;BME280;5776;51.814;4.510;2022-07-18T05:22:57;102346.25;;;18.33;63.79
11440;BME280;5776;51.814;4.510;2022-07-18T05:25:23;102353.38;;;18.34;63.19
11440;BME280;5776;51.814;4.510;2022-07-18T05:27:50;102355.00;;;18.35;63.04
11440;BME280;5776;51.814;4.510;2022-07-18T05:30:17;102350.34;;;18.36;62.67
11440;BME280;5776;51.814;4.510;2022-07-18T05:32:44;102339.00;;;18.38;63.15
11440;BME280;5776;51.814;4.510;2022-07-18T05:35:11;102336.25;;;18.38;62.79
11440;BME280;5776;51.814;4.510;2022-07-18T05:37:38;102345.31;;;18.38;62.66
11440;BME280;5776;51.814;4.510;2022-07-18T05:40:06;102344.22;;;18.39;62.84
11440;BME280;5776;51.814;4.510;2022-07-18T05:42:32;102339.53;;;18.40;62.48
11440;BME280;5776;51.814;4.510;2022-07-18T05:44:58;102351.34;;;18.40;63.12
11440;BME280;5776;51.814;4.510;2022-07-18T05:47:24;102343.59;;;18.42;62.43
11440;BME280;5776;51.814;4.510;2022-07-18T05:49:50;102350.72;;;18.43;62.11
11440;BME280;5776;51.814;4.510;2022-07-18T05:52:16;102348.81;;;18.44;62.26
11440;BME280;5776;51.814;4.510;2022-07-18T05:54:42;102346.06;;;18.44;62.12
11440;BME280;5776;51.814;4.510;2022-07-18T05:57:08;102349.31;;;18.46;62.68
11440;BME280;5776;51.814;4.510;2022-07-18T05:59:34;102343.78;;;18.46;62.24
11440;BME280;5776;51.814;4.510;2022-07-18T06:02:00;102345.44;;;18.47;61.88
11440;BME280;5776;51.814;4.510;2022-07-18T06:04:26;102344.31;;;18.48;61.55
11440;BME280;5776;51.814;4.510;2022-07-18T06:06:52;102340.47;;;18.49;62.06
11440;BME280;5776;51.814;4.510;2022-07-18T06:09:18;102338.53;;;18.49;61.48
11440;BME280;5776;51.814;4.510;2022-07-18T06:11:44;102326.09;;;18.52;61.45
11440;BME280;5776;51.814;4.510;2022-07-18T06:14:10;102328.72;;;18.57;61.93
11440;BME280;5776;51.814;4.510;2022-07-18T06:16:36;102324.75;;;18.63;61.82
11440;BME280;5776;51.814;4.510;2022-07-18T06:19:02;102327.00;;;18.61;61.35
11440;BME280;5776;51.814;4.510;2022-07-18T06:21:28;102321.50;;;18.61;61.96
11440;BME280;5776;51.814;4.510;2022-07-18T06:23:54;102309.66;;;18.61;62.08
11440;BME280;5776;51.814;4.510;2022-07-18T06:26:20;102309.66;;;18.61;61.40
11440;BME280;5776;51.814;4.510;2022-07-18T06:28:47;102303.88;;;18.62;61.71
11440;BME280;5776;51.814;4.510;2022-07-18T06:31:13;102305.47;;;18.63;61.77
11440;BME280;5776;51.814;4.510;2022-07-18T06:33:42;102301.63;;;18.64;61.19
11440;BME280;5776;51.814;4.510;2022-07-18T06:36:08;102309.56;;;18.66;61.66
11440;BME280;5776;51.814;4.510;2022-07-18T06:38:37;102310.59;;;18.70;61.73
11440;BME280;5776;51.814;4.510;2022-07-18T06:41:03;102312.19;;;18.71;61.41
11440;BME280;5776;51.814;4.510;2022-07-18T06:43:29;102307.53;;;18.71;61.77
11440;BME280;5776;51.814;4.510;2022-07-18T06:45:55;102301.69;;;18.73;61.75
11440;BME280;5776;51.814;4.510;2022-07-18T06:48:23;102308.03;;;18.73;61.20
11440;BME280;5776;51.814;4.510;2022-07-18T06:50:49;102314.06;;;18.75;61.62
11440;BME280;5776;51.814;4.510;2022-07-18T06:53:15;102309.41;;;18.76;61.28
11440;BME280;5776;51.814;4.510;2022-07-18T06:55:41;102309.06;;;18.77;61.16
11440;BME280;5776;51.814;4.510;2022-07-18T06:58:07;102313.94;;;18.81;61.31
11440;BME280;5776;51.814;4.510;2022-07-18T07:00:35;102314.78;;;18.81;61.76
11440;BME280;5776;51.814;4.510;2022-07-18T07:03:01;102313.66;;;18.82;61.87
11440;BME280;5776;51.814;4.510;2022-07-18T07:05:27;102316.94;;;18.84;61.66
11440;BME280;5776;51.814;4.510;2022-07-18T07:07:53;102315.50;;;18.87;61.74
11440;BME280;5776;51.814;4.510;2022-07-18T07:10:19;102312.41;;;18.88;61.44
11440;BME280;5776;51.814;4.510;2022-07-18T07:12:47;102314.88;;;18.90;61.40
11440;BME280;5776;51.814;4.510;2022-07-18T07:15:15;102315.69;;;18.90;61.23
11440;BME280;5776;51.814;4.510;2022-07-18T07:17:41;102314.25;;;18.93;61.36
11440;BME280;5776;51.814;4.510;2022-07-18T07:20:08;102311.19;;;18.94;61.84
11440;BME280;5776;51.814;4.510;2022-07-18T07:22:44;102306.50;;;18.95;61.88
11440;BME280;5776;51.814;4.510;2022-07-18T07:25:11;102310.88;;;18.96;61.41
11440;BME280;5776;51.814;4.510;2022-07-18T07:27:37;102311.38;;;18.98;61.43
11440;BME280;5776;51.814;4.510;2022-07-18T07:30:04;102302.81;;;18.99;61.57
11440;BME280;5776;51.814;4.510;2022-07-18T07:32:35;102303.31;;;19.02;61.74
11440;BME280;5776;51.814;4.510;2022-07-18T07:35:02;102299.13;;;19.04;61.79
11440;BME280;5776;51.814;4.510;2022-07-18T07:37:29;102307.06;;;19.06;61.98
11440;BME280;5776;51.814;4.510;2022-07-18T07:39:56;102304.03;;;19.07;61.64
11440;BME280;5776;51.814;4.510;2022-07-18T07:42:21;102300.13;;;19.08;62.36
11440;BME280;5776;51.814;4.510;2022-07-18T07:44:47;102294.31;;;19.10;61.40
11440;BME280;5776;51.814;4.510;2022-07-18T07:47:13;102294.03;;;19.11;61.97
11440;BME280;5776;51.814;4.510;2022-07-18T07:49:39;102292.88;;;19.12;61.71
11440;BME280;5776;51.814;4.510;2022-07-18T07:52:05;102291.75;;;19.13;61.54
11440;BME280;5776;51.814;4.510;2022-07-18T07:54:31;102281.56;;;19.14;61.38
11440;BME280;5776;51.814;4.510;2022-07-18T07:56:56;102284.00;;;19.15;61.58
11440;BME280;5776;51.814;4.510;2022-07-18T07:59:22;102290.53;;;19.19;61.78
11440;BME280;5776;51.814;4.510;2022-07-18T08:01:49;102286.63;;;19.20;61.69
11440;BME280;5776;51.814;4.510;2022-07-18T08:04:15;102295.41;;;19.23;61.60
11440;BME280;5776;51.814;4.510;2022-07-18T08:06:40;102286.03;;;19.24;61.92
11440;BME280;5776;51.814;4.510;2022-07-18T08:09:06;102295.91;;;19.25;61.55
11440;BME280;5776;51.814;4.510;2022-07-18T08:11:33;102290.91;;;19.27;61.79
11440;BME280;5776;51.814;4.510;2022-07-18T08:14:00;102298.53;;;19.30;61.64
11440;BME280;5776;51.814;4.510;2022-07-18T08:16:26;102288.84;;;19.32;61.66
11440;BME280;5776;51.814;4.510;2022-07-18T08:18:52;102288.03;;;19.32;61.82
11440;BME280;5776;51.814;4.510;2022-07-18T08:21:18;102291.28;;;19.34;61.79
11440;BME280;5776;51.814;4.510;2022-07-18T08:23:44;102283.50;;;19.36;61.99
11440;BME280;5776;51.814;4.510;2022-07-18T08:26:11;102285.16;;;19.37;62.29
11440;BME280;5776;51.814;4.510;2022-07-18T08:28:37;102288.41;;;19.39;62.10
11440;BME280;5776;51.814;4.510;2022-07-18T08:31:03;102280.94;;;19.39;62.27
11440;BME280;5776;51.814;4.510;2022-07-18T08:33:29;102286.13;;;19.41;61.84
11440;BME280;5776;51.814;4.510;2022-07-18T08:35:54;102287.78;;;19.42;62.19
11440;BME280;5776;51.814;4.510;2022-07-18T08:38:21;102293.78;;;19.44;61.91
11440;BME280;5776;51.814;4.510;2022-07-18T08:40:47;102285.19;;;19.46;62.02
11440;BME280;5776;51.814;4.510;2022-07-18T08:43:14;102282.13;;;19.47;62.53
11440;BME280;5776;51.814;4.510;2022-07-18T08:45:45;102282.66;;;19.49;61.78
11440;BME280;5776;51.814;4.510;2022-07-18T08:48:15;102281.50;;;19.50;62.23
11440;BME280;5776;51.814;4.510;2022-07-18T08:50:47;102280.88;;;19.53;62.08
11440;BME280;5776;51.814;4.510;2022-07-18T08:53:14;102290.44;;;19.56;62.31
11440;BME280;5776;51.814;4.510;2022-07-18T08:55:41;102284.63;;;19.57;61.98
11440;BME280;5776;51.814;4.510;2022-07-18T08:58:07;102280.75;;;19.58;62.18
11440;BME280;5776;51.814;4.510;2022-07-18T09:00:34;102282.06;;;19.61;61.95
11440;BME280;5776;51.814;4.510;2022-07-18T09:03:00;102280.94;;;19.62;62.31
11440;BME280;5776;51.814;4.510;2022-07-18T09:05:28;102277.84;;;19.63;62.49
11440;BME280;5776;51.814;4.510;2022-07-18T09:10:53;102281.34;;;19.69;62.21
11440;BME280;5776;51.814;4.510;2022-07-18T09:13:25;102284.56;;;19.71;62.15
11440;BME280;5776;51.814;4.510;2022-07-18T09:16:02;102281.72;;;19.76;62.42
11440;BME280;5776;51.814;4.510;2022-07-18T09:18:39;102274.44;;;19.80;62.01
11440;BME280;5776;51.814;4.510;2022-07-18T09:21:14;102275.22;;;19.81;61.92
11440;BME280;5776;51.814;4.510;2022-07-18T09:23:43;102274.13;;;19.82;61.95
11440;BME280;5776;51.814;4.510;2022-07-18T09:26:10;102277.38;;;19.84;62.30
11440;BME280;5776;51.814;4.510;2022-07-18T09:28:51;102277.38;;;19.84;62.53
11440;BME280;5776;51.814;4.510;2022-07-18T09:31:21;102275.09;;;19.86;62.92
11440;BME280;5776;51.814;4.510;2022-07-18T09:33:55;102273.66;;;19.89;62.88
11440;BME280;5776;51.814;4.510;2022-07-18T09:36:21;102276.09;;;19.90;62.73
11440;BME280;5776;51.814;4.510;2022-07-18T09:38:47;102272.69;;;19.93;62.06
11440;BME280;5776;51.814;4.510;2022-07-18T09:41:14;102273.22;;;19.95;62.46
11440;BME280;5776;51.814;4.510;2022-07-18T09:43:40;102268.69;;;19.99;62.46
11440;BME280;5776;51.814;4.510;2022-07-18T09:46:07;102271.94;;;20.01;62.11
11440;BME280;5776;51.814;4.510;2022-07-18T09:48:34;102268.56;;;20.04;62.33
11440;BME280;5776;51.814;4.510;2022-07-18T09:51:02;102269.06;;;20.06;62.00
11440;BME280;5776;51.814;4.510;2022-07-18T09:53:36;102271.16;;;20.10;61.93
11440;BME280;5776;51.814;4.510;2022-07-18T09:56:14;102266.97;;;20.12;61.47
11440;BME280;5776;51.814;4.510;2022-07-18T09:58:55;102265.50;;;20.15;62.15
11440;BME280;5776;51.814;4.510;2022-07-18T10:01:22;102266.00;;;20.17;62.12
11440;BME280;5776;51.814;4.510;2022-07-18T10:03:48;102270.06;;;20.19;62.23
11440;BME280;5776;51.814;4.510;2022-07-18T10:06:16;102265.03;;;20.21;61.66
11440;BME280;5776;51.814;4.510;2022-07-18T10:08:42;102273.81;;;20.23;62.23
11440;BME280;5776;51.814;4.510;2022-07-18T10:11:09;102273.50;;;20.25;62.94
11440;BME280;5776;51.814;4.510;2022-07-18T10:13:36;102266.53;;;20.27;62.54
11440;BME280;5776;51.814;4.510;2022-07-18T10:16:03;102267.03;;;20.29;62.87
11440;BME280;5776;51.814;4.510;2022-07-18T10:18:32;102268.00;;;20.34;61.90
11440;BME280;5776;51.814;4.510;2022-07-18T10:21:04;102261.03;;;20.36;62.48
11440;BME280;5776;51.814;4.510;2022-07-18T10:23:45;102269.16;;;20.41;62.54
11440;BME280;5776;51.814;4.510;2022-07-18T10:26:14;102264.63;;;20.45;62.37
11440;BME280;5776;51.814;4.510;2022-07-18T10:36:40;102265.78;;;20.53;61.96
11440;BME280;5776;51.814;4.510;2022-07-18T10:39:11;102266.59;;;20.54;62.70
11440;BME280;5776;51.814;4.510;2022-07-18T10:57:39;102254.25;;;21.73;54.97
11440;BME280;5776;51.814;4.510;2022-07-18T11:00:09;102260.34;;;21.96;51.56
11440;BME280;5776;51.814;4.510;2022-07-18T11:02:41;102257.22;;;22.06;48.56
11440;BME280;5776;51.814;4.510;2022-07-18T11:19:14;102244.25;;;21.16;56.12
11440;BME280;5776;51.814;4.510;2022-07-18T11:23:48;102242.94;;;21.13;57.59
11440;BME280;5776;51.814;4.510;2022-07-18T11:26:22;102231.09;;;21.13;57.61
11440;BME280;5776;51.814;4.510;2022-07-18T11:28:57;102236.63;;;21.13;58.11
11440;BME280;5776;51.814;4.510;2022-07-18T11:31:23;102235.00;;;21.12;58.00
11440;BME280;5776;51.814;4.510;2022-07-18T11:33:50;102227.19;;;21.14;58.92
11440;BME280;5776;51.814;4.510;2022-07-18T11:36:18;102238.22;;;21.14;58.87
11440;BME280;5776;51.814;4.510;2022-07-18T11:38:48;102229.94;;;21.14;58.76
11440;BME280;5776;51.814;4.510;2022-07-18T11:41:15;102233.19;;;21.16;59.33
11440;BME280;5776;51.814;4.510;2022-07-18T11:43:43;102230.94;;;21.18;59.48
11440;BME280;5776;51.814;4.510;2022-07-18T11:46:11;102228.66;;;21.20;59.36
11440;BME280;5776;51.814;4.510;2022-07-18T11:48:38;102227.50;;;21.21;59.90
11440;BME280;5776;51.814;4.510;2022-07-18T11:53:36;102231.25;;;21.25;60.17
11440;BME280;5776;51.814;4.510;2022-07-18T11:56:07;102228.97;;;21.27;60.21
11440;BME280;5776;51.814;4.510;2022-07-18T11:58:37;102227.81;;;21.28;60.59
11440;BME280;5776;51.814;4.510;2022-07-18T12:01:04;102221.19;;;21.29;60.51
11440;BME280;5776;51.814;4.510;2022-07-18T12:03:34;102221.63;;;21.31;60.81
11440;BME280;5776;51.814;4.510;2022-07-18T12:06:13;102216.59;;;21.33;60.93
11440;BME280;5776;51.814;4.510;2022-07-18T12:08:41;102211.56;;;21.35;61.19
11440;BME280;5776;51.814;4.510;2022-07-18T12:14:00;102210.94;;;21.39;61.25
11440;BME280;5776;51.814;4.510;2022-07-18T12:16:43;102210.63;;;21.40;61.60
11440;BME280;5776;51.814;4.510;2022-07-18T12:19:20;102209.81;;;21.40;61.33
11440;BME280;5776;51.814;4.510;2022-07-18T12:32:38;102196.75;;;21.49;60.88
11440;BME280;5776;51.814;4.510;2022-07-18T12:35:07;102203.94;;;21.50;61.73
11440;BME280;5776;51.814;4.510;2022-07-18T12:37:33;102205.53;;;21.51;61.72
11440;BME280;5776;51.814;4.510;2022-07-18T12:40:08;102200.50;;;21.53;61.55
11440;BME280;5776;51.814;4.510;2022-07-18T12:42:40;102195.47;;;21.55;61.50
11440;BME280;5776;51.814;4.510;2022-07-18T12:45:08;102191.53;;;21.56;61.78
11440;BME280;5776;51.814;4.510;2022-07-18T12:47:35;102191.22;;;21.57;61.79
11440;BME280;5776;51.814;4.510;2022-07-18T12:50:01;102190.88;;;21.59;62.07
11440;BME280;5776;51.814;4.510;2022-07-18T12:52:26;102190.56;;;21.61;61.62
11440;BME280;5776;51.814;4.510;2022-07-18T12:54:52;102191.84;;;21.63;61.33
11440;BME280;5776;51.814;4.510;2022-07-18T12:57:19;102184.03;;;21.65;61.66
11440;BME280;5776;51.814;4.510;2022-07-18T12:59:46;102182.06;;;21.66;62.39
11440;BME280;5776;51.814;4.510;2022-07-18T13:02:12;102175.06;;;21.68;61.44
11440;BME280;5776;51.814;4.510;2022-07-18T13:04:39;102171.16;;;21.69;62.48
11440;BME280;5776;51.814;4.510;2022-07-18T13:07:05;102166.47;;;21.70;61.46
11440;BME280;5776;51.814;4.510;2022-07-18T13:09:31;102165.31;;;21.71;62.40
11440;BME280;5776;51.814;4.510;2022-07-18T13:11:56;102163.03;;;21.73;62.63
11440;BME280;5776;51.814;4.510;2022-07-18T13:14:23;102163.16;;;21.76;62.40
11440;BME280;5776;51.814;4.510;2022-07-18T13:16:49;102157.00;;;21.79;61.92
11440;BME280;5776;51.814;4.510;2022-07-18T13:19:16;102164.25;;;21.84;61.78
11440;BME280;5776;51.814;4.510;2022-07-18T13:21:44;102159.06;;;21.83;62.37
11440;BME280;5776;51.814;4.510;2022-07-18T13:24:10;102143.91;;;21.89;61.87
11440;BME280;5776;51.814;4.510;2022-07-18T13:26:36;102160.97;;;21.91;61.14
11440;BME280;5776;51.814;4.510;2022-07-18T13:29:04;102159.81;;;21.92;61.18
11440;BME280;5776;51.814;4.510;2022-07-18T13:31:30;102163.44;;;21.92;62.10
11440;BME280;5776;51.814;4.510;2022-07-18T13:33:56;102165.34;;;21.92;62.28
11440;BME280;5776;51.814;4.510;2022-07-18T13:36:22;102154.28;;;21.92;62.95
11440;BME280;5776;51.814;4.510;2022-07-18T13:38:49;102153.16;;;21.93;62.99
11440;BME280;5776;51.814;4.510;2022-07-18T13:41:14;102158.34;;;21.94;62.24
11440;BME280;5776;51.814;4.510;2022-07-18T13:43:40;102153.28;;;21.96;62.86
11440;BME280;5776;51.814;4.510;2022-07-18T13:46:07;102156.53;;;21.98;63.08
11440;BME280;5776;51.814;4.510;2022-07-18T13:48:34;102147.13;;;21.99;63.01
11440;BME280;5776;51.814;4.510;2022-07-18T13:51:00;102144.00;;;22.01;62.92
11440;BME280;5776;51.814;4.510;2022-07-18T13:53:26;102145.63;;;22.02;63.02
11440;BME280;5776;51.814;4.510;2022-07-18T13:55:52;102146.09;;;22.04;62.98
11440;BME280;5776;51.814;4.510;2022-07-18T13:58:18;102144.97;;;22.05;62.80